createdAt,value
2019-02-10T00:00:11.915Z,937.90
2019-02-10T00:01:19.978Z,937.92
2019-02-10T00:02:28.050Z,937.89
2019-02-10T00:03:36.131Z,937.93
2019-02-10T00:04:44.144Z,937.92
2019-02-10T00:05:52.197Z,937.82
2019-02-10T00:07:00.246Z,937.87
2019-02-10T00:08:08.412Z,937.87
2019-02-10T00:09:16.374Z,937.91
2019-02-10T00:10:24.529Z,937.87
2019-02-10T00:11:32.538Z,937.85
2019-02-10T00:12:40.537Z,937.89
2019-02-10T00:13:48.692Z,937.91
2019-02-10T00:14:56.660Z,937.94
2019-02-10T00:16:04.734Z,937.92
2019-02-10T00:17:12.785Z,937.90
2019-02-10T00:18:20.898Z,937.86
2019-02-10T00:19:28.904Z,937.85
2019-02-10T00:20:36.953Z,937.79
2019-02-10T00:21:45.015Z,937.75
2019-02-10T00:22:53.089Z,937.78
2019-02-10T00:24:01.223Z,937.75
2019-02-10T00:25:09.182Z,937.73
2019-02-10T00:26:17.473Z,937.76
2019-02-10T00:27:25.313Z,937.75
2019-02-10T00:28:33.413Z,937.72
2019-02-10T00:29:41.412Z,937.77
2019-02-10T00:30:49.467Z,937.76
2019-02-10T00:31:57.524Z,937.76
2019-02-10T00:33:05.592Z,937.75
2019-02-10T00:34:13.720Z,937.73
2019-02-10T00:35:21.674Z,937.71
2019-02-10T00:36:33.114Z,937.72
2019-02-10T00:37:37.811Z,937.68
2019-02-10T00:38:45.974Z,937.74
2019-02-10T00:39:53.922Z,937.75
2019-02-10T00:41:01.955Z,937.73
2019-02-10T00:42:10.120Z,937.78
2019-02-10T00:43:18.092Z,937.72
2019-02-10T00:44:26.150Z,937.70
2019-02-10T00:45:34.203Z,937.76
2019-02-10T00:46:42.275Z,937.76
2019-02-10T00:47:50.309Z,937.75
2019-02-10T00:48:58.481Z,937.70
2019-02-10T00:50:06.448Z,937.74
2019-02-10T00:51:14.509Z,937.65
2019-02-10T00:52:22.540Z,937.66
2019-02-10T00:53:30.615Z,937.65
2019-02-10T00:54:38.663Z,937.59
2019-02-10T00:55:46.722Z,937.56
2019-02-10T00:56:54.783Z,937.59
2019-02-10T00:58:02.902Z,937.63
2019-02-10T00:59:10.979Z,937.59
2019-02-10T01:00:18.946Z,937.53
2019-02-10T01:01:27.016Z,937.54
2019-02-10T01:02:35.086Z,937.51
2019-02-10T01:03:43.130Z,937.52
2019-02-10T01:04:51.173Z,937.51
2019-02-10T01:05:59.230Z,937.54
2019-02-10T01:07:07.298Z,937.49
2019-02-10T01:08:15.343Z,937.42
2019-02-10T01:09:23.457Z,937.49
2019-02-10T01:10:31.464Z,937.46
2019-02-10T01:11:39.908Z,937.45
2019-02-10T01:12:47.678Z,937.50
2019-02-10T01:13:55.770Z,937.42
2019-02-10T01:15:03.709Z,937.40
2019-02-10T01:16:11.765Z,937.41
2019-02-10T01:17:19.827Z,937.39
2019-02-10T01:18:27.899Z,937.39
2019-02-10T01:19:36.001Z,937.37
2019-02-10T01:20:43.978Z,937.38
2019-02-10T01:21:52.021Z,937.39
2019-02-10T01:23:00.107Z,937.31
2019-02-10T01:24:08.247Z,937.33
2019-02-10T01:25:16.220Z,937.29
2019-02-10T01:26:24.264Z,937.28
2019-02-10T01:27:32.411Z,937.29
2019-02-10T01:28:40.390Z,937.28
2019-02-10T01:29:48.485Z,937.27
2019-02-10T01:30:56.501Z,937.28
2019-02-10T01:32:04.554Z,937.27
2019-02-10T01:33:12.619Z,937.23
2019-02-10T01:34:20.773Z,937.20
2019-02-10T01:35:28.723Z,937.17
2019-02-10T01:36:36.780Z,937.12
2019-02-10T01:37:44.838Z,937.12
2019-02-10T01:38:52.897Z,937.09
2019-02-10T01:40:01.076Z,937.06
2019-02-10T01:41:09.022Z,937.01
2019-02-10T01:42:17.069Z,937.02
2019-02-10T01:43:25.219Z,936.92
2019-02-10T01:44:33.238Z,936.94
2019-02-10T01:45:41.239Z,936.95
2019-02-10T01:46:49.294Z,936.95
2019-02-10T01:47:57.362Z,936.90
2019-02-10T01:49:05.555Z,936.85
2019-02-10T01:50:13.541Z,936.83
2019-02-10T01:51:21.570Z,936.81
2019-02-10T01:52:29.614Z,936.75
2019-02-10T01:53:37.643Z,936.68
2019-02-10T01:54:45.805Z,936.71
2019-02-10T01:55:53.763Z,936.67
2019-02-10T01:57:01.799Z,936.58
2019-02-10T01:58:09.882Z,936.56
2019-02-10T01:59:18.045Z,936.56
2019-02-10T02:00:26.046Z,936.56
2019-02-10T02:01:34.040Z,936.48
2019-02-10T02:02:42.075Z,936.42
2019-02-10T02:03:50.164Z,936.39
2019-02-10T02:04:58.269Z,936.34
2019-02-10T02:06:06.306Z,936.32
2019-02-10T02:07:14.365Z,936.28
2019-02-10T02:08:22.381Z,936.24
2019-02-10T02:09:30.451Z,936.25
2019-02-10T02:10:38.586Z,936.17
2019-02-10T02:11:46.566Z,936.16
2019-02-10T02:12:54.598Z,936.15
2019-02-10T02:14:02.686Z,936.12
2019-02-10T02:15:10.839Z,936.10
2019-02-10T02:16:18.790Z,936.08
2019-02-10T02:17:26.849Z,936.11
2019-02-10T02:18:34.894Z,936.07
2019-02-10T02:19:42.977Z,936.06
2019-02-10T02:20:51.053Z,936.00
2019-02-10T02:21:59.129Z,935.95
2019-02-10T02:23:07.162Z,935.92
2019-02-10T02:24:15.186Z,935.93
2019-02-10T02:25:23.311Z,935.96
2019-02-10T02:26:31.299Z,935.94
2019-02-10T02:27:39.376Z,935.89
2019-02-10T02:28:47.412Z,935.94
2019-02-10T02:29:55.477Z,935.91
2019-02-10T02:31:03.633Z,935.88
2019-02-10T02:32:11.576Z,935.86
2019-02-10T02:33:19.685Z,935.82
2019-02-10T02:34:27.705Z,935.74
2019-02-10T02:35:35.863Z,935.73
2019-02-10T02:36:43.804Z,935.68
2019-02-10T02:37:51.868Z,935.68
2019-02-10T02:38:59.956Z,935.63
2019-02-10T02:40:07.993Z,935.53
2019-02-10T02:41:16.118Z,935.48
2019-02-10T02:42:24.141Z,935.48
2019-02-10T02:43:32.175Z,935.43
2019-02-10T02:44:40.226Z,935.43
2019-02-10T02:45:48.418Z,935.38
2019-02-10T02:46:56.444Z,935.37
2019-02-10T02:48:04.397Z,935.37
2019-02-10T02:49:12.488Z,935.37
2019-02-10T02:50:20.508Z,935.44
2019-02-10T02:51:28.595Z,935.35
2019-02-10T02:52:36.627Z,935.39
2019-02-10T02:53:44.690Z,935.35
2019-02-10T02:54:52.769Z,935.34
2019-02-10T02:56:00.909Z,935.33
2019-02-10T02:57:08.886Z,935.28
2019-02-10T02:58:16.919Z,935.23
2019-02-10T02:59:24.999Z,935.25
2019-02-10T03:00:33.064Z,935.24
2019-02-10T03:01:41.072Z,935.16
2019-02-10T03:02:49.243Z,935.15
2019-02-10T03:03:57.213Z,935.10
2019-02-10T03:05:05.263Z,935.11
2019-02-10T03:06:13.509Z,935.07
2019-02-10T03:07:21.353Z,935.07
2019-02-10T03:08:29.440Z,935.02
2019-02-10T03:09:37.514Z,935.00
2019-02-10T03:10:45.663Z,934.96
2019-02-10T03:11:53.608Z,934.93
2019-02-10T03:13:01.647Z,934.90
2019-02-10T03:14:09.721Z,934.89
2019-02-10T03:15:17.771Z,934.89
2019-02-10T03:16:25.891Z,934.87
2019-02-10T03:17:33.964Z,934.84
2019-02-10T03:18:41.940Z,934.79
2019-02-10T03:19:50.011Z,934.82
2019-02-10T03:20:58.162Z,934.86
2019-02-10T03:22:06.123Z,934.93
2019-02-10T03:23:14.166Z,934.93
2019-02-10T03:24:22.213Z,934.88
2019-02-10T03:25:30.293Z,934.82
2019-02-10T03:26:38.400Z,934.78
2019-02-10T03:27:46.415Z,934.72
2019-02-10T03:28:54.458Z,934.67
2019-02-10T03:30:02.507Z,934.61
2019-02-10T03:31:10.641Z,934.56
2019-02-10T03:32:18.634Z,934.56
2019-02-10T03:33:26.821Z,934.46
2019-02-10T03:34:34.752Z,934.40
2019-02-10T03:35:42.810Z,934.38
2019-02-10T03:36:50.974Z,934.28
2019-02-10T03:37:58.920Z,934.25
2019-02-10T03:39:06.982Z,934.31
2019-02-10T03:40:15.045Z,934.35
2019-02-10T03:41:23.171Z,934.37
2019-02-10T03:42:31.176Z,934.32
2019-02-10T03:43:39.211Z,934.28
2019-02-10T03:44:47.246Z,934.27
2019-02-10T03:45:55.304Z,934.25
2019-02-10T03:47:03.423Z,934.26
2019-02-10T03:48:11.469Z,934.26
2019-02-10T03:49:19.480Z,934.17
2019-02-10T03:50:27.554Z,934.15
2019-02-10T03:51:35.662Z,934.11
2019-02-10T03:52:43.668Z,934.07
2019-02-10T03:53:51.692Z,934.15
2019-02-10T03:54:59.789Z,934.18
2019-02-10T03:56:07.841Z,934.15
2019-02-10T03:57:15.945Z,934.23
2019-02-10T03:58:23.965Z,934.15
2019-02-10T03:59:31.998Z,934.09
2019-02-10T04:00:40.078Z,934.04
2019-02-10T04:01:48.213Z,934.02
2019-02-10T04:02:56.234Z,934.03
2019-02-10T04:04:04.241Z,934.00
2019-02-10T04:05:12.251Z,934.00
2019-02-10T04:06:20.340Z,934.00
2019-02-10T04:07:35.781Z,934.02
2019-02-10T04:08:36.469Z,933.97
2019-02-10T04:09:44.524Z,933.97
2019-02-10T04:10:52.569Z,933.92
2019-02-10T04:12:00.742Z,933.86
2019-02-10T04:13:08.694Z,933.87
2019-02-10T04:14:16.794Z,933.84
2019-02-10T04:15:24.801Z,933.84
2019-02-10T04:16:32.871Z,933.87
2019-02-10T04:17:40.986Z,933.84
2019-02-10T04:18:48.980Z,933.81
2019-02-10T04:19:57.036Z,933.81
2019-02-10T04:21:05.085Z,933.74
2019-02-10T04:22:13.382Z,933.65
2019-02-10T04:23:21.209Z,933.59
2019-02-10T04:24:29.260Z,933.53
2019-02-10T04:25:37.332Z,933.46
2019-02-10T04:26:45.377Z,933.39
2019-02-10T04:27:53.486Z,933.37
2019-02-10T04:29:01.486Z,933.29
2019-02-10T04:30:09.684Z,933.26
2019-02-10T04:31:17.606Z,933.30
2019-02-10T04:32:25.769Z,933.33
2019-02-10T04:33:33.718Z,933.36
2019-02-10T04:34:41.754Z,933.42
2019-02-10T04:35:49.832Z,933.44
2019-02-10T04:36:57.881Z,933.49
2019-02-10T04:38:06.047Z,933.56
2019-02-10T04:39:14.010Z,933.56
2019-02-10T04:40:22.053Z,933.51
2019-02-10T04:41:30.119Z,933.51
2019-02-10T04:42:38.223Z,933.53
2019-02-10T04:43:46.230Z,933.50
2019-02-10T04:44:54.319Z,933.46
2019-02-10T04:46:02.339Z,933.53
2019-02-10T04:47:10.409Z,933.60
2019-02-10T04:48:18.506Z,933.61
2019-02-10T04:49:26.509Z,933.55
2019-02-10T04:50:34.568Z,933.49
2019-02-10T04:51:42.616Z,933.40
2019-02-10T04:52:50.800Z,933.32
2019-02-10T04:53:58.739Z,933.25
2019-02-10T04:55:06.788Z,933.20
2019-02-10T04:56:14.853Z,933.15
2019-02-10T04:57:22.918Z,933.14
2019-02-10T04:58:30.983Z,933.13
2019-02-10T04:59:39.023Z,933.01
2019-02-10T05:00:47.121Z,932.89
2019-02-10T05:01:55.137Z,932.89
2019-02-10T05:03:03.292Z,933.05
2019-02-10T05:04:11.293Z,933.12
2019-02-10T05:05:19.309Z,933.16
2019-02-10T05:06:27.354Z,933.15
2019-02-10T05:07:35.525Z,933.15
2019-02-10T05:08:43.467Z,933.12
2019-02-10T05:09:51.532Z,933.08
2019-02-10T05:10:59.603Z,933.12
2019-02-10T05:12:07.683Z,933.11
2019-02-10T05:13:15.749Z,933.13
2019-02-10T05:14:23.752Z,933.14
2019-02-10T05:15:31.794Z,933.13
2019-02-10T05:16:39.879Z,933.09
2019-02-10T05:17:48.046Z,933.06
2019-02-10T05:18:56.096Z,933.05
2019-02-10T05:20:04.047Z,933.07
2019-02-10T05:21:12.085Z,933.04
2019-02-10T05:22:20.173Z,933.02
2019-02-10T05:23:28.263Z,933.00
2019-02-10T05:24:36.273Z,933.02
2019-02-10T05:25:44.344Z,932.95
2019-02-10T05:26:52.386Z,932.90
2019-02-10T05:28:00.500Z,932.86
2019-02-10T05:29:08.495Z,932.87
2019-02-10T05:30:16.561Z,932.81
2019-02-10T05:31:24.628Z,932.77
2019-02-10T05:32:32.686Z,932.83
2019-02-10T05:33:40.795Z,932.79
2019-02-10T05:34:48.896Z,932.76
2019-02-10T05:35:56.853Z,932.75
2019-02-10T05:37:04.898Z,932.79
2019-02-10T05:38:13.072Z,932.80
2019-02-10T05:39:21.014Z,932.77
2019-02-10T05:40:29.085Z,932.75
2019-02-10T05:41:37.130Z,932.84
2019-02-10T05:42:45.182Z,932.73
2019-02-10T05:43:53.312Z,932.72
2019-02-10T05:45:01.281Z,932.77
2019-02-10T05:46:09.362Z,932.86
2019-02-10T05:47:19.101Z,932.70
2019-02-10T05:48:25.583Z,932.92
2019-02-10T05:49:33.538Z,932.69
2019-02-10T05:50:41.669Z,932.42
2019-02-10T05:51:49.655Z,932.61
2019-02-10T05:52:57.689Z,932.55
2019-02-10T05:54:05.806Z,932.57
2019-02-10T05:55:13.815Z,932.57
2019-02-10T05:56:21.873Z,932.57
2019-02-10T05:57:29.942Z,932.45
2019-02-10T05:58:38.034Z,932.65
2019-02-10T05:59:46.061Z,932.39
2019-02-10T06:00:54.107Z,932.66
2019-02-10T06:02:02.158Z,932.43
2019-02-10T06:03:10.219Z,932.31
2019-02-10T06:04:18.376Z,932.43
2019-02-10T06:05:26.369Z,932.36
2019-02-10T06:06:34.511Z,932.32
2019-02-10T06:07:42.455Z,932.35
2019-02-10T06:08:50.558Z,932.30
2019-02-10T06:09:58.583Z,932.22
2019-02-10T06:11:06.633Z,932.19
2019-02-10T06:12:14.687Z,932.18
2019-02-10T06:13:22.744Z,932.14
2019-02-10T06:14:30.843Z,932.14
2019-02-10T06:15:38.876Z,932.06
2019-02-10T06:16:46.927Z,932.13
2019-02-10T06:17:54.981Z,932.17
2019-02-10T06:19:03.104Z,932.19
2019-02-10T06:20:11.080Z,932.20
2019-02-10T06:21:19.141Z,932.19
2019-02-10T06:22:27.269Z,932.06
2019-02-10T06:23:35.251Z,932.18
2019-02-10T06:24:43.359Z,932.12
2019-02-10T06:25:51.366Z,932.13
2019-02-10T06:26:59.430Z,932.16
2019-02-10T06:28:07.487Z,932.18
2019-02-10T06:29:16.649Z,932.20
2019-02-10T06:30:24.599Z,932.20
2019-02-10T06:31:32.677Z,932.19
2019-02-10T06:32:40.724Z,932.17
2019-02-10T06:33:48.786Z,932.17
2019-02-10T06:34:56.889Z,932.17
2019-02-10T06:36:04.919Z,932.15
2019-02-10T06:37:13.008Z,932.14
2019-02-10T06:38:22.630Z,932.14
2019-02-10T06:39:29.124Z,932.12
2019-02-10T06:40:37.120Z,932.19
2019-02-10T06:41:45.174Z,932.19
2019-02-10T06:42:53.247Z,932.11
2019-02-10T06:44:01.273Z,932.18
2019-02-10T06:45:09.352Z,932.14
2019-02-10T06:46:17.410Z,932.14
2019-02-10T06:47:25.459Z,932.19
2019-02-10T06:48:33.522Z,932.23
2019-02-10T06:49:41.613Z,932.21
2019-02-10T06:50:49.639Z,932.20
2019-02-10T06:51:57.686Z,932.13
2019-02-10T06:53:05.847Z,932.13
2019-02-10T06:54:13.818Z,932.15
2019-02-10T06:55:21.863Z,932.06
2019-02-10T06:56:29.931Z,932.07
2019-02-10T06:57:38.000Z,932.02
2019-02-10T06:58:46.058Z,932.03
2019-02-10T06:59:54.149Z,932.18
2019-02-10T07:01:02.140Z,932.04
2019-02-10T07:02:10.223Z,932.07
2019-02-10T07:03:18.270Z,931.84
2019-02-10T07:04:26.328Z,932.01
2019-02-10T07:05:34.398Z,932.04
2019-02-10T07:06:42.435Z,931.98
2019-02-10T07:07:50.569Z,931.94
2019-02-10T07:08:58.568Z,931.93
2019-02-10T07:10:06.703Z,931.83
2019-02-10T07:11:14.688Z,931.81
2019-02-10T07:12:22.744Z,931.78
2019-02-10T07:13:30.814Z,931.74
2019-02-10T07:14:38.938Z,931.77
2019-02-10T07:15:46.891Z,931.74
2019-02-10T07:16:54.967Z,931.66
2019-02-10T07:18:03.020Z,931.66
2019-02-10T07:19:11.066Z,931.62
2019-02-10T07:20:19.168Z,931.63
2019-02-10T07:21:28.711Z,931.63
2019-02-10T07:22:35.347Z,931.62
2019-02-10T07:23:43.301Z,931.62
2019-02-10T07:24:51.539Z,931.58
2019-02-10T07:25:59.427Z,931.57
2019-02-10T07:27:07.493Z,931.53
2019-02-10T07:28:15.544Z,931.53
2019-02-10T07:29:23.595Z,931.45
2019-02-10T07:30:31.705Z,931.63
2019-02-10T07:31:39.757Z,931.48
2019-02-10T07:32:47.782Z,931.53
2019-02-10T07:33:55.826Z,931.48
2019-02-10T07:35:03.999Z,931.49
2019-02-10T07:36:11.955Z,931.47
2019-02-10T07:37:19.997Z,931.48
2019-02-10T07:38:28.172Z,931.48
2019-02-10T07:39:36.133Z,931.48
2019-02-10T07:40:44.287Z,931.48
2019-02-10T07:41:52.265Z,931.48
2019-02-10T07:43:00.293Z,931.50
2019-02-10T07:44:08.523Z,931.52
2019-02-10T07:45:16.449Z,931.56
2019-02-10T07:46:24.481Z,931.62
2019-02-10T07:47:32.529Z,931.57
2019-02-10T07:48:40.596Z,931.49
2019-02-10T07:49:48.667Z,931.42
2019-02-10T07:50:56.767Z,931.45
2019-02-10T07:52:04.784Z,931.39
2019-02-10T07:53:12.830Z,931.36
2019-02-10T07:54:20.996Z,931.36
2019-02-10T07:55:29.044Z,931.32
2019-02-10T07:56:36.984Z,931.25
2019-02-10T07:57:45.139Z,931.26
2019-02-10T07:58:53.102Z,931.21
2019-02-10T08:00:01.180Z,931.18
2019-02-10T08:01:09.337Z,931.20
2019-02-10T08:02:17.302Z,931.18
2019-02-10T08:03:25.352Z,931.11
2019-02-10T08:04:33.405Z,931.18
2019-02-10T08:05:41.524Z,931.13
2019-02-10T08:06:49.529Z,931.20
2019-02-10T08:07:57.582Z,931.15
2019-02-10T08:09:05.694Z,931.13
2019-02-10T08:10:13.829Z,931.10
2019-02-10T08:11:21.838Z,931.10
2019-02-10T08:12:29.811Z,931.08
2019-02-10T08:13:37.893Z,931.10
2019-02-10T08:14:45.950Z,931.07
2019-02-10T08:15:54.106Z,931.03
2019-02-10T08:17:02.062Z,931.07
2019-02-10T08:18:10.128Z,931.00
2019-02-10T08:19:18.176Z,931.10
2019-02-10T08:20:26.385Z,930.97
2019-02-10T08:21:34.351Z,931.07
2019-02-10T08:22:42.328Z,931.08
2019-02-10T08:23:50.408Z,931.10
2019-02-10T08:24:58.466Z,931.10
2019-02-10T08:26:06.679Z,931.06
2019-02-10T08:27:14.630Z,931.03
2019-02-10T08:28:23.660Z,930.99
2019-02-10T08:29:31.688Z,930.97
2019-02-10T08:30:39.765Z,931.05
2019-02-10T08:31:47.873Z,931.03
2019-02-10T08:32:55.900Z,931.02
2019-02-10T08:34:03.958Z,930.99
2019-02-10T08:35:12.002Z,930.98
2019-02-10T08:36:20.180Z,930.94
2019-02-10T08:37:28.120Z,930.98
2019-02-10T08:38:36.196Z,931.01
2019-02-10T08:39:44.255Z,931.06
2019-02-10T08:40:52.393Z,931.13
2019-02-10T08:42:00.401Z,931.15
2019-02-10T08:43:08.420Z,931.08
2019-02-10T08:44:16.516Z,931.05
2019-02-10T08:45:24.553Z,931.02
2019-02-10T08:46:32.710Z,930.99
2019-02-10T08:47:40.669Z,931.00
2019-02-10T08:48:48.724Z,931.03
2019-02-10T08:49:56.798Z,931.07
2019-02-10T08:51:04.863Z,931.00
2019-02-10T08:52:12.894Z,930.99
2019-02-10T08:53:21.014Z,930.89
2019-02-10T08:54:29.041Z,930.87
2019-02-10T08:55:37.079Z,930.86
2019-02-10T08:56:45.332Z,930.79
2019-02-10T08:57:53.195Z,930.72
2019-02-10T08:59:01.268Z,930.73
2019-02-10T09:00:09.337Z,930.74
2019-02-10T09:01:17.432Z,930.67
2019-02-10T09:02:25.470Z,930.65
2019-02-10T09:03:33.497Z,930.63
2019-02-10T09:04:41.555Z,930.56
2019-02-10T09:05:49.632Z,930.54
2019-02-10T09:06:57.802Z,930.53
2019-02-10T09:08:05.764Z,930.52
2019-02-10T09:09:13.820Z,930.45
2019-02-10T09:10:21.878Z,930.44
2019-02-10T09:11:30.037Z,930.45
2019-02-10T09:12:38.100Z,930.35
2019-02-10T09:13:46.102Z,930.32
2019-02-10T09:14:54.104Z,930.30
2019-02-10T09:16:02.168Z,930.30
2019-02-10T09:17:10.411Z,930.26
2019-02-10T09:18:18.348Z,930.22
2019-02-10T09:19:26.358Z,930.17
2019-02-10T09:20:34.440Z,930.14
2019-02-10T09:21:42.539Z,930.13
2019-02-10T09:22:50.550Z,930.07
2019-02-10T09:23:58.605Z,930.09
2019-02-10T09:25:06.668Z,930.10
2019-02-10T09:26:14.729Z,930.11
2019-02-10T09:27:22.888Z,930.03
2019-02-10T09:28:30.862Z,930.04
2019-02-10T09:29:39.388Z,930.07
2019-02-10T09:30:46.994Z,930.03
2019-02-10T09:31:55.134Z,929.90
2019-02-10T09:33:03.094Z,929.97
2019-02-10T09:34:11.197Z,930.09
2019-02-10T09:35:19.233Z,929.98
2019-02-10T09:36:27.278Z,929.95
2019-02-10T09:37:35.394Z,929.90
2019-02-10T09:38:43.413Z,929.86
2019-02-10T09:39:51.468Z,929.79
2019-02-10T09:40:59.519Z,929.77
2019-02-10T09:42:07.677Z,929.76
2019-02-10T09:43:15.740Z,929.72
2019-02-10T09:44:23.723Z,929.71
2019-02-10T09:45:31.790Z,929.72
2019-02-10T09:46:39.839Z,929.63
2019-02-10T09:47:47.944Z,929.64
2019-02-10T09:48:55.971Z,929.62
2019-02-10T09:50:04.022Z,929.65
2019-02-10T09:51:12.062Z,929.64
2019-02-10T09:52:20.236Z,929.64
2019-02-10T09:53:28.191Z,929.61
2019-02-10T09:54:36.278Z,929.64
2019-02-10T09:55:44.351Z,929.59
2019-02-10T09:56:52.385Z,929.56
2019-02-10T09:58:00.584Z,929.53
2019-02-10T09:59:08.570Z,929.57
2019-02-10T10:00:16.629Z,929.55
2019-02-10T10:01:24.631Z,929.46
2019-02-10T10:02:32.792Z,929.50
2019-02-10T10:03:40.765Z,929.49
2019-02-10T10:04:48.805Z,929.48
2019-02-10T10:05:56.891Z,929.33
2019-02-10T10:07:04.953Z,929.51
2019-02-10T10:08:13.130Z,929.36
2019-02-10T10:09:21.092Z,929.41
2019-02-10T10:10:29.182Z,929.35
2019-02-10T10:11:37.181Z,929.31
2019-02-10T10:12:45.309Z,929.32
2019-02-10T10:13:53.304Z,929.38
2019-02-10T10:15:01.489Z,929.44
2019-02-10T10:16:09.450Z,929.28
2019-02-10T10:17:17.523Z,929.43
2019-02-10T10:18:25.603Z,929.28
2019-02-10T10:19:33.619Z,929.34
2019-02-10T10:20:41.680Z,929.12
2019-02-10T10:21:49.759Z,929.36
2019-02-10T10:22:57.842Z,929.29
2019-02-10T10:24:05.883Z,929.24
2019-02-10T10:25:13.925Z,929.24
2019-02-10T10:26:22.014Z,929.24
2019-02-10T10:27:30.322Z,929.17
2019-02-10T10:28:38.109Z,929.22
2019-02-10T10:29:46.170Z,929.21
2019-02-10T10:30:54.364Z,929.21
2019-02-10T10:32:02.325Z,929.30
2019-02-10T10:33:10.481Z,929.26
2019-02-10T10:34:18.429Z,929.30
2019-02-10T10:35:26.488Z,929.32
2019-02-10T10:36:34.562Z,929.26
2019-02-10T10:37:42.618Z,929.24
2019-02-10T10:38:50.689Z,929.28
2019-02-10T10:39:58.755Z,929.25
2019-02-10T10:41:06.807Z,929.22
2019-02-10T10:42:14.880Z,929.16
2019-02-10T10:43:22.988Z,929.10
2019-02-10T10:44:30.991Z,929.11
2019-02-10T10:45:39.056Z,929.08
2019-02-10T10:46:47.236Z,929.06
2019-02-10T10:47:55.223Z,929.02
2019-02-10T10:49:03.250Z,928.95
2019-02-10T10:50:11.321Z,928.95
2019-02-10T10:51:19.385Z,928.88
2019-02-10T10:52:27.445Z,928.75
2019-02-10T10:53:35.600Z,928.74
2019-02-10T10:54:43.556Z,928.71
2019-02-10T10:55:51.610Z,928.75
2019-02-10T10:56:59.687Z,928.69
2019-02-10T10:58:07.757Z,928.70
2019-02-10T10:59:15.809Z,928.63
2019-02-10T11:00:23.891Z,928.63
2019-02-10T11:01:31.941Z,928.55
2019-02-10T11:02:40.058Z,928.59
2019-02-10T11:03:48.177Z,928.52
2019-02-10T11:04:56.173Z,928.55
2019-02-10T11:06:04.187Z,928.53
2019-02-10T11:07:12.242Z,928.51
2019-02-10T11:08:20.423Z,928.39
2019-02-10T11:09:35.342Z,928.49
2019-02-10T11:10:36.462Z,928.47
2019-02-10T11:11:44.596Z,928.51
2019-02-10T11:12:52.584Z,928.47
2019-02-10T11:14:00.691Z,928.41
2019-02-10T11:15:08.713Z,928.38
2019-02-10T11:16:16.773Z,928.43
2019-02-10T11:17:24.858Z,928.43
2019-02-10T11:18:33.350Z,928.38
2019-02-10T11:19:40.952Z,928.32
2019-02-10T11:20:49.056Z,928.29
2019-02-10T11:21:57.104Z,928.30
2019-02-10T11:23:05.161Z,928.06
2019-02-10T11:24:13.258Z,928.23
2019-02-10T11:25:21.269Z,928.19
2019-02-10T11:26:29.354Z,928.18
2019-02-10T11:27:37.399Z,928.13
2019-02-10T11:28:45.564Z,928.14
2019-02-10T11:29:53.543Z,928.16
2019-02-10T11:31:01.595Z,928.15
2019-02-10T11:32:09.679Z,928.00
2019-02-10T11:33:17.815Z,927.98
2019-02-10T11:34:25.905Z,927.93
2019-02-10T11:35:33.882Z,927.95
2019-02-10T11:36:41.940Z,927.82
2019-02-10T11:37:49.990Z,927.95
2019-02-10T11:38:58.111Z,927.82
2019-02-10T11:40:06.114Z,927.62
2019-02-10T11:41:14.179Z,927.58
2019-02-10T11:42:22.237Z,927.51
2019-02-10T11:43:30.303Z,927.56
2019-02-10T11:44:38.429Z,927.40
2019-02-10T11:45:46.450Z,927.45
2019-02-10T11:46:54.488Z,927.37
2019-02-10T11:48:02.670Z,927.35
2019-02-10T11:49:10.733Z,927.30
2019-02-10T11:50:18.693Z,927.17
2019-02-10T11:51:26.762Z,927.22
2019-02-10T11:52:34.839Z,927.21
2019-02-10T11:53:42.890Z,927.10
2019-02-10T11:54:51.058Z,927.23
2019-02-10T11:55:59.032Z,927.22
2019-02-10T11:57:07.084Z,927.13
2019-02-10T11:58:15.162Z,927.09
2019-02-10T11:59:23.264Z,927.06
2019-02-10T12:00:31.282Z,926.92
2019-02-10T12:01:39.341Z,926.89
2019-02-10T12:02:47.458Z,926.91
2019-02-10T12:03:55.468Z,926.91
2019-02-10T12:05:03.574Z,926.93
2019-02-10T12:06:11.573Z,926.74
2019-02-10T12:07:19.683Z,926.81
2019-02-10T12:08:35.133Z,926.70
2019-02-10T12:09:35.836Z,926.76
2019-02-10T12:10:43.861Z,926.68
2019-02-10T12:11:51.898Z,926.63
2019-02-10T12:12:59.976Z,926.63
2019-02-10T12:14:08.047Z,926.53
2019-02-10T12:15:16.164Z,926.53
2019-02-10T12:16:24.188Z,926.47
2019-02-10T12:17:32.682Z,926.32
2019-02-10T12:18:40.314Z,926.47
2019-02-10T12:19:48.424Z,926.45
2019-02-10T12:20:56.450Z,926.46
2019-02-10T12:22:04.519Z,926.41
2019-02-10T12:23:12.577Z,926.52
2019-02-10T12:24:20.642Z,926.52
2019-02-10T12:25:28.751Z,926.43
2019-02-10T12:26:36.767Z,926.42
2019-02-10T12:27:44.873Z,926.46
2019-02-10T12:28:52.912Z,926.51
2019-02-10T12:30:03.000Z,926.43
2019-02-10T12:31:09.040Z,926.56
2019-02-10T12:32:17.108Z,926.55
2019-02-10T12:33:25.276Z,926.47
2019-02-10T12:34:33.227Z,926.57
2019-02-10T12:35:41.381Z,926.55
2019-02-10T12:36:49.358Z,926.49
2019-02-10T12:37:57.429Z,926.42
2019-02-10T12:39:05.490Z,926.50
2019-02-10T12:40:13.601Z,926.47
2019-02-10T12:41:21.608Z,926.53
2019-02-10T12:42:29.696Z,926.40
2019-02-10T12:43:37.786Z,926.46
2019-02-10T12:44:46.064Z,926.40
2019-02-10T12:45:53.878Z,926.48
2019-02-10T12:47:01.954Z,926.66
2019-02-10T12:48:10.027Z,926.55
2019-02-10T12:49:18.191Z,926.85
2019-02-10T12:50:26.213Z,926.61
2019-02-10T12:51:34.216Z,926.40
2019-02-10T12:52:42.276Z,926.76
2019-02-10T12:53:50.357Z,926.80
2019-02-10T12:54:58.396Z,926.65
2019-02-10T12:56:06.498Z,926.66
2019-02-10T12:57:14.514Z,926.60
2019-02-10T12:58:22.575Z,926.81
2019-02-10T12:59:30.704Z,926.62
2019-02-10T13:00:38.808Z,926.86
2019-02-10T13:01:46.792Z,926.69
2019-02-10T13:02:54.861Z,926.54
2019-02-10T13:04:02.905Z,926.53
2019-02-10T13:05:11.086Z,926.57
2019-02-10T13:06:19.041Z,926.67
2019-02-10T13:07:27.120Z,926.59
2019-02-10T13:08:35.212Z,926.79
2019-02-10T13:09:43.253Z,926.46
2019-02-10T13:10:51.345Z,926.72
2019-02-10T13:11:59.378Z,926.77
2019-02-10T13:13:07.442Z,926.66
2019-02-10T13:14:15.627Z,926.84
2019-02-10T13:15:23.673Z,926.67
2019-02-10T13:16:31.613Z,926.80
2019-02-10T13:17:39.712Z,926.76
2019-02-10T13:18:47.758Z,926.78
2019-02-10T13:19:55.806Z,926.85
2019-02-10T13:21:03.959Z,926.78
2019-02-10T13:22:11.932Z,926.88
2019-02-10T13:23:20.030Z,926.77
2019-02-10T13:24:28.075Z,926.69
2019-02-10T13:25:36.186Z,926.86
2019-02-10T13:26:44.195Z,926.58
2019-02-10T13:27:52.245Z,926.66
2019-02-10T13:29:00.431Z,926.64
2019-02-10T13:30:08.381Z,926.61
2019-02-10T13:31:16.553Z,926.57
2019-02-10T13:32:24.571Z,926.50
2019-02-10T13:33:32.929Z,926.58
2019-02-10T13:34:40.632Z,926.69
2019-02-10T13:35:48.749Z,926.57
2019-02-10T13:36:57.016Z,926.53
2019-02-10T13:38:04.818Z,926.48
2019-02-10T13:39:12.892Z,926.42
2019-02-10T13:40:21.276Z,926.32
2019-02-10T13:41:29.063Z,926.27
2019-02-10T13:42:37.071Z,926.21
2019-02-10T13:43:45.145Z,926.29
2019-02-10T13:44:53.211Z,926.30
2019-02-10T13:46:01.308Z,926.07
2019-02-10T13:47:09.325Z,926.29
2019-02-10T13:48:17.387Z,926.15
2019-02-10T13:49:25.457Z,926.09
2019-02-10T13:50:33.512Z,926.12
2019-02-10T13:51:42.163Z,926.02
2019-02-10T13:52:49.997Z,926.01
2019-02-10T13:53:57.699Z,926.22
2019-02-10T13:55:05.777Z,926.13
2019-02-10T13:56:13.945Z,926.10
2019-02-10T13:57:21.871Z,925.89
2019-02-10T13:58:29.956Z,926.04
2019-02-10T13:59:38.192Z,925.68
2019-02-10T14:00:46.066Z,925.72
2019-02-10T14:01:54.213Z,925.68
2019-02-10T14:03:02.178Z,925.66
2019-02-10T14:04:10.284Z,925.59
2019-02-10T14:05:18.328Z,925.59
2019-02-10T14:06:26.467Z,925.46
2019-02-10T14:07:34.487Z,925.46
2019-02-10T14:08:42.489Z,925.56